sensor_id;sensor_type;location;lat;lon;timestamp;P1;durP1;ratioP1;P2;durP2;ratioP2
4636;SDS011;2331;48.806;9.140;2023-04-08T00:01:34;14.90;;;10.50;;
4636;SDS011;2331;48.806;9.140;2023-04-08T00:04:01;16.20;;;10.90;;
4636;SDS011;2331;48.806;9.140;2023-04-08T00:06:28;14.68;;;10.00;;
4636;SDS011;2331;48.806;9.140;2023-04-08T00:08:55;19.10;;;10.13;;
4636;SDS011;2331;48.806;9.140;2023-04-08T00:11:23;15.60;;;10.50;;
4636;SDS011;2331;48.806;9.140;2023-04-08T00:13:50;19.55;;;11.77;;
4636;SDS011;2331;48.806;9.140;2023-04-08T00:16:17;16.02;;;10.43;;
4636;SDS011;2331;48.806;9.140;2023-04-08T00:18:44;17.33;;;11.15;;
4636;SDS011;2331;48.806;9.140;2023-04-08T00:21:11;18.90;;;11.38;;
4636;SDS011;2331;48.806;9.140;2023-04-08T00:23:40;15.18;;;9.50;;
4636;SDS011;2331;48.806;9.140;2023-04-08T00:26:07;15.20;;;9.77;;
4636;SDS011;2331;48.806;9.140;2023-04-08T00:28:36;15.77;;;10.15;;
4636;SDS011;2331;48.806;9.140;2023-04-08T00:31:06;17.77;;;10.63;;
4636;SDS011;2331;48.806;9.140;2023-04-08T00:33:33;17.27;;;10.82;;
4636;SDS011;2331;48.806;9.140;2023-04-08T00:36:00;15.77;;;10.15;;
4636;SDS011;2331;48.806;9.140;2023-04-08T00:38:27;15.90;;;10.57;;
4636;SDS011;2331;48.806;9.140;2023-04-08T00:40:54;18.35;;;10.30;;
4636;SDS011;2331;48.806;9.140;2023-04-08T00:43:22;13.20;;;8.80;;
4636;SDS011;2331;48.806;9.140;2023-04-08T00:45:50;17.88;;;9.40;;
4636;SDS011;2331;48.806;9.140;2023-04-08T00:48:17;14.60;;;9.32;;
4636;SDS011;2331;48.806;9.140;2023-04-08T00:50:43;16.98;;;10.10;;
4636;SDS011;2331;48.806;9.140;2023-04-08T00:53:11;15.80;;;9.93;;
4636;SDS011;2331;48.806;9.140;2023-04-08T00:55:40;16.42;;;10.57;;
4636;SDS011;2331;48.806;9.140;2023-04-08T00:58:08;13.50;;;9.20;;
4636;SDS011;2331;48.806;9.140;2023-04-08T01:00:35;15.57;;;9.85;;
4636;SDS011;2331;48.806;9.140;2023-04-08T01:03:07;15.18;;;9.85;;
4636;SDS011;2331;48.806;9.140;2023-04-08T01:05:42;14.23;;;10.00;;
4636;SDS011;2331;48.806;9.140;2023-04-08T01:08:16;12.77;;;8.55;;
4636;SDS011;2331;48.806;9.140;2023-04-08T01:10:44;14.35;;;8.75;;
4636;SDS011;2331;48.806;9.140;2023-04-08T01:13:16;19.80;;;10.73;;
4636;SDS011;2331;48.806;9.140;2023-04-08T01:15:43;15.15;;;9.65;;
4636;SDS011;2331;48.806;9.140;2023-04-08T01:18:13;15.15;;;10.73;;
4636;SDS011;2331;48.806;9.140;2023-04-08T01:20:42;14.15;;;10.05;;
4636;SDS011;2331;48.806;9.140;2023-04-08T01:23:12;15.02;;;8.82;;
4636;SDS011;2331;48.806;9.140;2023-04-08T01:25:47;16.33;;;10.05;;
4636;SDS011;2331;48.806;9.140;2023-04-08T01:28:15;15.15;;;9.75;;
4636;SDS011;2331;48.806;9.140;2023-04-08T01:30:45;15.85;;;10.50;;
4636;SDS011;2331;48.806;9.140;2023-04-08T01:33:13;16.02;;;10.57;;
4636;SDS011;2331;48.806;9.140;2023-04-08T01:35:41;16.25;;;10.77;;
4636;SDS011;2331;48.806;9.140;2023-04-08T01:38:10;14.32;;;9.93;;
4636;SDS011;2331;48.806;9.140;2023-04-08T01:40:40;16.88;;;10.65;;
4636;SDS011;2331;48.806;9.140;2023-04-08T01:43:10;17.70;;;10.80;;
4636;SDS011;2331;48.806;9.140;2023-04-08T01:45:39;15.85;;;10.43;;
4636;SDS011;2331;48.806;9.140;2023-04-08T01:48:07;17.48;;;10.40;;
4636;SDS011;2331;48.806;9.140;2023-04-08T01:50:34;17.35;;;10.98;;
4636;SDS011;2331;48.806;9.140;2023-04-08T01:53:02;20.02;;;11.20;;
4636;SDS011;2331;48.806;9.140;2023-04-08T01:55:30;15.20;;;10.02;;
4636;SDS011;2331;48.806;9.140;2023-04-08T01:57:58;17.75;;;11.07;;
4636;SDS011;2331;48.806;9.140;2023-04-08T02:00:28;16.50;;;10.77;;
4636;SDS011;2331;48.806;9.140;2023-04-08T02:02:56;17.42;;;11.05;;
4636;SDS011;2331;48.806;9.140;2023-04-08T02:05:24;18.35;;;11.80;;
4636;SDS011;2331;48.806;9.140;2023-04-08T02:07:50;16.75;;;10.70;;
4636;SDS011;2331;48.806;9.140;2023-04-08T02:10:17;16.58;;;10.88;;
4636;SDS011;2331;48.806;9.140;2023-04-08T02:12:44;16.27;;;9.85;;
4636;SDS011;2331;48.806;9.140;2023-04-08T02:15:12;18.23;;;10.88;;
4636;SDS011;2331;48.806;9.140;2023-04-08T02:17:42;17.33;;;11.15;;
4636;SDS011;2331;48.806;9.140;2023-04-08T02:20:13;16.80;;;11.25;;
4636;SDS011;2331;48.806;9.140;2023-04-08T02:22:44;21.10;;;12.30;;
4636;SDS011;2331;48.806;9.140;2023-04-08T02:25:16;17.73;;;11.43;;
4636;SDS011;2331;48.806;9.140;2023-04-08T02:27:46;18.42;;;11.00;;
4636;SDS011;2331;48.806;9.140;2023-04-08T02:30:14;18.02;;;11.40;;
4636;SDS011;2331;48.806;9.140;2023-04-08T02:32:43;23.98;;;12.45;;
4636;SDS011;2331;48.806;9.140;2023-04-08T02:35:10;19.27;;;11.95;;
4636;SDS011;2331;48.806;9.140;2023-04-08T02:37:38;19.00;;;12.25;;
4636;SDS011;2331;48.806;9.140;2023-04-08T02:42:48;19.45;;;11.88;;
4636;SDS011;2331;48.806;9.140;2023-04-08T02:45:15;19.15;;;12.48;;
4636;SDS011;2331;48.806;9.140;2023-04-08T02:47:43;18.63;;;11.40;;
4636;SDS011;2331;48.806;9.140;2023-04-08T02:50:10;19.70;;;12.13;;
4636;SDS011;2331;48.806;9.140;2023-04-08T02:52:37;17.70;;;11.02;;
4636;SDS011;2331;48.806;9.140;2023-04-08T02:55:05;21.38;;;11.73;;
4636;SDS011;2331;48.806;9.140;2023-04-08T02:57:34;19.90;;;12.38;;
4636;SDS011;2331;48.806;9.140;2023-04-08T03:00:02;20.85;;;11.52;;
4636;SDS011;2331;48.806;9.140;2023-04-08T03:02:30;18.45;;;11.82;;
4636;SDS011;2331;48.806;9.140;2023-04-08T03:04:58;20.75;;;11.90;;
4636;SDS011;2331;48.806;9.140;2023-04-08T03:07:25;25.05;;;14.07;;
4636;SDS011;2331;48.806;9.140;2023-04-08T03:09:52;21.08;;;13.13;;
4636;SDS011;2331;48.806;9.140;2023-04-08T03:12:20;21.90;;;13.05;;
4636;SDS011;2331;48.806;9.140;2023-04-08T03:14:46;24.63;;;13.75;;
4636;SDS011;2331;48.806;9.140;2023-04-08T03:17:15;26.60;;;13.00;;
4636;SDS011;2331;48.806;9.140;2023-04-08T03:19:42;23.40;;;12.85;;
4636;SDS011;2331;48.806;9.140;2023-04-08T03:22:10;28.27;;;13.77;;
4636;SDS011;2331;48.806;9.140;2023-04-08T03:24:38;20.20;;;12.07;;
4636;SDS011;2331;48.806;9.140;2023-04-08T03:27:05;22.52;;;11.88;;
4636;SDS011;2331;48.806;9.140;2023-04-08T03:29:33;21.27;;;12.60;;
4636;SDS011;2331;48.806;9.140;2023-04-08T03:32:00;22.67;;;12.43;;
4636;SDS011;2331;48.806;9.140;2023-04-08T03:34:26;23.55;;;12.70;;
4636;SDS011;2331;48.806;9.140;2023-04-08T03:36:53;24.88;;;12.70;;
4636;SDS011;2331;48.806;9.140;2023-04-08T03:39:21;24.95;;;12.13;;
4636;SDS011;2331;48.806;9.140;2023-04-08T03:41:48;21.50;;;12.57;;
4636;SDS011;2331;48.806;9.140;2023-04-08T03:44:15;22.70;;;12.38;;
4636;SDS011;2331;48.806;9.140;2023-04-08T03:46:42;21.90;;;12.23;;
4636;SDS011;2331;48.806;9.140;2023-04-08T03:49:09;23.45;;;12.20;;
4636;SDS011;2331;48.806;9.140;2023-04-08T03:51:36;31.17;;;13.65;;
4636;SDS011;2331;48.806;9.140;2023-04-08T03:54:03;22.98;;;12.60;;
4636;SDS011;2331;48.806;9.140;2023-04-08T03:56:31;23.58;;;12.15;;
4636;SDS011;2331;48.806;9.140;2023-04-08T03:58:58;24.10;;;12.18;;
4636;SDS011;2331;48.806;9.140;2023-04-08T04:01:25;22.33;;;11.63;;
4636;SDS011;2331;48.806;9.140;2023-04-08T04:03:51;21.65;;;12.25;;
4636;SDS011;2331;48.806;9.140;2023-04-08T04:06:18;19.33;;;11.30;;
4636;SDS011;2331;48.806;9.140;2023-04-08T04:08:45;23.27;;;12.95;;
4636;SDS011;2331;48.806;9.140;2023-04-08T04:11:11;24.05;;;12.38;;
4636;SDS011;2331;48.806;9.140;2023-04-08T04:13:40;22.52;;;12.70;;
4636;SDS011;2331;48.806;9.140;2023-04-08T04:16:07;23.83;;;13.27;;
4636;SDS011;2331;48.806;9.140;2023-04-08T04:18:34;22.15;;;12.50;;
4636;SDS011;2331;48.806;9.140;2023-04-08T04:21:03;20.67;;;12.18;;
4636;SDS011;2331;48.806;9.140;2023-04-08T04:23:31;24.63;;;13.82;;
4636;SDS011;2331;48.806;9.140;2023-04-08T04:25:58;25.90;;;13.85;;
4636;SDS011;2331;48.806;9.140;2023-04-08T04:28:25;22.85;;;12.60;;
4636;SDS011;2331;48.806;9.140;2023-04-08T04:30:53;24.63;;;13.75;;
4636;SDS011;2331;48.806;9.140;2023-04-08T04:33:20;23.45;;;13.52;;
4636;SDS011;2331;48.806;9.140;2023-04-08T04:35:47;26.20;;;13.95;;
4636;SDS011;2331;48.806;9.140;2023-04-08T04:38:13;25.08;;;13.70;;
4636;SDS011;2331;48.806;9.140;2023-04-08T04:40:41;26.52;;;13.10;;
4636;SDS011;2331;48.806;9.140;2023-04-08T04:43:08;31.33;;;14.15;;
4636;SDS011;2331;48.806;9.140;2023-04-08T04:45:35;30.05;;;14.45;;
4636;SDS011;2331;48.806;9.140;2023-04-08T04:48:04;25.00;;;14.07;;
4636;SDS011;2331;48.806;9.140;2023-04-08T04:50:31;23.45;;;13.75;;
4636;SDS011;2331;48.806;9.140;2023-04-08T04:52:58;24.42;;;13.30;;
4636;SDS011;2331;48.806;9.140;2023-04-08T04:55:25;23.95;;;13.57;;
4636;SDS011;2331;48.806;9.140;2023-04-08T04:57:52;23.92;;;13.30;;
4636;SDS011;2331;48.806;9.140;2023-04-08T05:00:19;25.23;;;14.25;;
4636;SDS011;2331;48.806;9.140;2023-04-08T05:02:46;25.60;;;14.10;;
4636;SDS011;2331;48.806;9.140;2023-04-08T05:05:14;23.35;;;13.52;;
4636;SDS011;2331;48.806;9.140;2023-04-08T05:07:41;25.65;;;13.63;;
4636;SDS011;2331;48.806;9.140;2023-04-08T05:10:09;30.48;;;13.90;;
4636;SDS011;2331;48.806;9.140;2023-04-08T05:12:36;22.55;;;14.30;;
4636;SDS011;2331;48.806;9.140;2023-04-08T05:15:02;26.40;;;15.60;;
4636;SDS011;2331;48.806;9.140;2023-04-08T05:17:31;24.75;;;14.48;;
4636;SDS011;2331;48.806;9.140;2023-04-08T05:19:58;24.80;;;14.63;;
4636;SDS011;2331;48.806;9.140;2023-04-08T05:22:26;23.35;;;12.52;;
4636;SDS011;2331;48.806;9.140;2023-04-08T05:24:53;26.27;;;13.63;;
4636;SDS011;2331;48.806;9.140;2023-04-08T05:27:20;24.83;;;14.65;;
4636;SDS011;2331;48.806;9.140;2023-04-08T05:29:46;28.17;;;15.05;;
4636;SDS011;2331;48.806;9.140;2023-04-08T05:32:13;28.15;;;15.35;;
4636;SDS011;2331;48.806;9.140;2023-04-08T05:34:41;33.63;;;15.32;;
4636;SDS011;2331;48.806;9.140;2023-04-08T05:37:08;26.42;;;14.48;;
4636;SDS011;2331;48.806;9.140;2023-04-08T05:39:37;24.50;;;14.20;;
4636;SDS011;2331;48.806;9.140;2023-04-08T05:42:04;22.13;;;13.98;;
4636;SDS011;2331;48.806;9.140;2023-04-08T05:44:30;25.33;;;14.90;;
4636;SDS011;2331;48.806;9.140;2023-04-08T05:46:57;25.48;;;14.50;;
4636;SDS011;2331;48.806;9.140;2023-04-08T05:49:25;27.23;;;16.00;;
4636;SDS011;2331;48.806;9.140;2023-04-08T05:51:51;24.80;;;14.73;;
4636;SDS011;2331;48.806;9.140;2023-04-08T05:54:18;34.50;;;14.80;;
4636;SDS011;2331;48.806;9.140;2023-04-08T05:56:46;24.92;;;14.88;;
4636;SDS011;2331;48.806;9.140;2023-04-08T05:59:14;25.95;;;15.00;;
4636;SDS011;2331;48.806;9.140;2023-04-08T06:01:40;26.17;;;15.88;;
4636;SDS011;2331;48.806;9.140;2023-04-08T06:04:07;26.20;;;15.77;;
4636;SDS011;2331;48.806;9.140;2023-04-08T06:06:34;25.92;;;14.70;;
4636;SDS011;2331;48.806;9.140;2023-04-08T06:09:03;25.83;;;15.88;;
4636;SDS011;2331;48.806;9.140;2023-04-08T06:11:30;23.05;;;14.40;;
4636;SDS011;2331;48.806;9.140;2023-04-08T06:13:58;26.63;;;16.13;;
4636;SDS011;2331;48.806;9.140;2023-04-08T06:16:25;26.55;;;14.55;;
4636;SDS011;2331;48.806;9.140;2023-04-08T06:18:51;24.98;;;15.30;;
4636;SDS011;2331;48.806;9.140;2023-04-08T06:21:18;27.65;;;15.55;;
4636;SDS011;2331;48.806;9.140;2023-04-08T06:23:45;25.60;;;15.35;;
4636;SDS011;2331;48.806;9.140;2023-04-08T06:26:12;25.95;;;15.52;;
4636;SDS011;2331;48.806;9.140;2023-04-08T06:28:39;22.42;;;14.00;;
4636;SDS011;2331;48.806;9.140;2023-04-08T06:31:07;27.35;;;15.10;;
4636;SDS011;2331;48.806;9.140;2023-04-08T06:33:34;26.48;;;15.27;;
4636;SDS011;2331;48.806;9.140;2023-04-08T06:36:01;24.75;;;14.90;;
4636;SDS011;2331;48.806;9.140;2023-04-08T06:38:28;25.60;;;14.50;;
4636;SDS011;2331;48.806;9.140;2023-04-08T06:40:56;26.23;;;14.95;;
4636;SDS011;2331;48.806;9.140;2023-04-08T06:43:26;27.58;;;15.50;;
4636;SDS011;2331;48.806;9.140;2023-04-08T06:45:53;25.90;;;14.63;;
4636;SDS011;2331;48.806;9.140;2023-04-08T06:48:22;26.02;;;15.05;;
4636;SDS011;2331;48.806;9.140;2023-04-08T06:50:52;27.08;;;15.45;;
4636;SDS011;2331;48.806;9.140;2023-04-08T06:53:21;28.63;;;16.38;;
4636;SDS011;2331;48.806;9.140;2023-04-08T06:55:49;25.67;;;14.88;;
4636;SDS011;2331;48.806;9.140;2023-04-08T06:58:16;26.65;;;15.00;;
4636;SDS011;2331;48.806;9.140;2023-04-08T07:00:43;23.95;;;14.52;;
4636;SDS011;2331;48.806;9.140;2023-04-08T07:03:10;24.27;;;14.48;;
4636;SDS011;2331;48.806;9.140;2023-04-08T07:05:38;21.33;;;13.88;;
4636;SDS011;2331;48.806;9.140;2023-04-08T07:08:06;24.02;;;14.63;;
4636;SDS011;2331;48.806;9.140;2023-04-08T07:10:33;29.33;;;14.20;;
4636;SDS011;2331;48.806;9.140;2023-04-08T07:13:00;26.17;;;15.13;;
4636;SDS011;2331;48.806;9.140;2023-04-08T07:15:27;23.95;;;14.02;;
4636;SDS011;2331;48.806;9.140;2023-04-08T07:17:54;23.60;;;13.77;;
4636;SDS011;2331;48.806;9.140;2023-04-08T07:20:21;21.42;;;12.85;;
4636;SDS011;2331;48.806;9.140;2023-04-08T07:22:49;21.23;;;13.57;;
4636;SDS011;2331;48.806;9.140;2023-04-08T07:25:16;24.67;;;13.90;;
4636;SDS011;2331;48.806;9.140;2023-04-08T07:27:43;22.17;;;12.70;;
4636;SDS011;2331;48.806;9.140;2023-04-08T07:30:10;21.92;;;13.43;;
4636;SDS011;2331;48.806;9.140;2023-04-08T07:32:37;24.17;;;13.57;;
4636;SDS011;2331;48.806;9.140;2023-04-08T07:35:05;23.60;;;12.40;;
4636;SDS011;2331;48.806;9.140;2023-04-08T07:37:33;20.23;;;12.27;;
4636;SDS011;2331;48.806;9.140;2023-04-08T07:40:01;22.92;;;13.90;;
4636;SDS011;2331;48.806;9.140;2023-04-08T07:42:28;22.00;;;13.18;;
4636;SDS011;2331;48.806;9.140;2023-04-08T07:44:55;21.23;;;12.45;;
4636;SDS011;2331;48.806;9.140;2023-04-08T07:47:21;19.30;;;11.52;;
4636;SDS011;2331;48.806;9.140;2023-04-08T07:49:49;21.15;;;11.90;;
4636;SDS011;2331;48.806;9.140;2023-04-08T07:52:16;19.77;;;12.43;;
4636;SDS011;2331;48.806;9.140;2023-04-08T07:54:43;19.05;;;12.63;;
4636;SDS011;2331;48.806;9.140;2023-04-08T07:57:11;18.05;;;10.90;;
4636;SDS011;2331;48.806;9.140;2023-04-08T07:59:38;19.42;;;11.13;;
4636;SDS011;2331;48.806;9.140;2023-04-08T08:02:05;18.17;;;11.10;;
4636;SDS011;2331;48.806;9.140;2023-04-08T08:04:32;16.25;;;10.45;;
4636;SDS011;2331;48.806;9.140;2023-04-08T08:06:59;18.83;;;11.18;;
4636;SDS011;2331;48.806;9.140;2023-04-08T08:09:26;16.65;;;11.00;;
4636;SDS011;2331;48.806;9.140;2023-04-08T08:11:52;17.88;;;11.25;;
4636;SDS011;2331;48.806;9.140;2023-04-08T08:14:20;19.73;;;11.80;;
4636;SDS011;2331;48.806;9.140;2023-04-08T08:16:47;17.40;;;10.43;;
4636;SDS011;2331;48.806;9.140;2023-04-08T08:19:14;16.42;;;10.60;;
4636;SDS011;2331;48.806;9.140;2023-04-08T08:21:41;14.32;;;10.20;;
4636;SDS011;2331;48.806;9.140;2023-04-08T08:24:08;16.92;;;10.95;;
4636;SDS011;2331;48.806;9.140;2023-04-08T08:26:35;17.10;;;11.35;;
4636;SDS011;2331;48.806;9.140;2023-04-08T08:29:02;16.13;;;10.82;;
4636;SDS011;2331;48.806;9.140;2023-04-08T08:31:31;17.50;;;11.07;;
4636;SDS011;2331;48.806;9.140;2023-04-08T08:33:58;17.27;;;11.52;;
4636;SDS011;2331;48.806;9.140;2023-04-08T08:36:25;16.80;;;11.15;;
4636;SDS011;2331;48.806;9.140;2023-04-08T08:38:52;20.27;;;12.98;;
4636;SDS011;2331;48.806;9.140;2023-04-08T08:41:19;18.23;;;11.38;;
4636;SDS011;2331;48.806;9.140;2023-04-08T08:43:46;16.38;;;11.00;;
4636;SDS011;2331;48.806;9.140;2023-04-08T08:46:14;17.20;;;11.52;;
4636;SDS011;2331;48.806;9.140;2023-04-08T08:48:44;20.85;;;11.02;;
4636;SDS011;2331;48.806;9.140;2023-04-08T08:51:11;16.27;;;11.27;;
4636;SDS011;2331;48.806;9.140;2023-04-08T08:53:38;14.70;;;10.23;;
4636;SDS011;2331;48.806;9.140;2023-04-08T08:56:09;14.70;;;10.20;;
4636;SDS011;2331;48.806;9.140;2023-04-08T08:58:37;17.75;;;11.98;;
4636;SDS011;2331;48.806;9.140;2023-04-08T09:04:05;19.35;;;10.63;;
4636;SDS011;2331;48.806;9.140;2023-04-08T09:06:37;14.65;;;10.02;;
4636;SDS011;2331;48.806;9.140;2023-04-08T09:09:05;14.93;;;10.45;;
4636;SDS011;2331;48.806;9.140;2023-04-08T09:11:34;17.23;;;11.00;;
4636;SDS011;2331;48.806;9.140;2023-04-08T09:14:01;16.60;;;11.23;;
4636;SDS011;2331;48.806;9.140;2023-04-08T09:16:28;15.20;;;11.15;;
4636;SDS011;2331;48.806;9.140;2023-04-08T09:18:57;18.40;;;10.55;;
4636;SDS011;2331;48.806;9.140;2023-04-08T09:21:36;15.70;;;10.77;;
4636;SDS011;2331;48.806;9.140;2023-04-08T09:24:03;15.98;;;11.25;;
4636;SDS011;2331;48.806;9.140;2023-04-08T09:26:30;16.45;;;11.05;;
4636;SDS011;2331;48.806;9.140;2023-04-08T09:28:57;17.80;;;11.20;;
4636;SDS011;2331;48.806;9.140;2023-04-08T09:31:25;16.02;;;10.45;;
4636;SDS011;2331;48.806;9.140;2023-04-08T09:33:54;18.00;;;11.40;;
4636;SDS011;2331;48.806;9.140;2023-04-08T09:36:24;18.17;;;10.90;;
4636;SDS011;2331;48.806;9.140;2023-04-08T09:38:52;16.80;;;11.23;;
4636;SDS011;2331;48.806;9.140;2023-04-08T09:41:20;17.15;;;10.95;;
4636;SDS011;2331;48.806;9.140;2023-04-08T09:43:48;17.90;;;11.55;;
4636;SDS011;2331;48.806;9.140;2023-04-08T09:46:17;15.50;;;10.32;;
4636;SDS011;2331;48.806;9.140;2023-04-08T09:48:54;16.20;;;10.25;;
4636;SDS011;2331;48.806;9.140;2023-04-08T09:51:28;16.10;;;10.75;;
4636;SDS011;2331;48.806;9.140;2023-04-08T09:53:59;16.33;;;11.07;;
4636;SDS011;2331;48.806;9.140;2023-04-08T09:56:29;14.05;;;9.70;;
4636;SDS011;2331;48.806;9.140;2023-04-08T09:59:06;16.10;;;9.77;;
4636;SDS011;2331;48.806;9.140;2023-04-08T10:01:37;14.70;;;9.88;;
4636;SDS011;2331;48.806;9.140;2023-04-08T10:04:06;15.90;;;9.82;;
4636;SDS011;2331;48.806;9.140;2023-04-08T10:06:37;16.63;;;11.25;;
4636;SDS011;2331;48.806;9.140;2023-04-08T10:09:04;20.13;;;10.85;;
4636;SDS011;2331;48.806;9.140;2023-04-08T10:11:32;15.77;;;10.75;;
4636;SDS011;2331;48.806;9.140;2023-04-08T10:14:00;16.55;;;10.13;;
4636;SDS011;2331;48.806;9.140;2023-04-08T10:16:27;16.83;;;11.02;;
4636;SDS011;2331;48.806;9.140;2023-04-08T10:18:54;16.40;;;10.60;;
4636;SDS011;2331;48.806;9.140;2023-04-08T10:21:34;16.80;;;11.25;;
4636;SDS011;2331;48.806;9.140;2023-04-08T10:24:07;19.77;;;10.85;;
4636;SDS011;2331;48.806;9.140;2023-04-08T10:26:35;16.80;;;10.10;;
4636;SDS011;2331;48.806;9.140;2023-04-08T10:31:55;13.18;;;9.10;;
4636;SDS011;2331;48.806;9.140;2023-04-08T10:34:22;15.05;;;9.70;;
4636;SDS011;2331;48.806;9.140;2023-04-08T10:36:52;14.90;;;9.93;;
4636;SDS011;2331;48.806;9.140;2023-04-08T10:39:20;13.23;;;9.00;;
4636;SDS011;2331;48.806;9.140;2023-04-08T10:41:48;14.15;;;8.95;;
4636;SDS011;2331;48.806;9.140;2023-04-08T10:44:15;14.10;;;9.50;;
4636;SDS011;2331;48.806;9.140;2023-04-08T10:46:42;15.63;;;10.57;;
4636;SDS011;2331;48.806;9.140;2023-04-08T10:49:10;15.20;;;10.15;;
4636;SDS011;2331;48.806;9.140;2023-04-08T10:51:37;17.40;;;9.75;;
4636;SDS011;2331;48.806;9.140;2023-04-08T10:54:05;12.13;;;8.50;;
4636;SDS011;2331;48.806;9.140;2023-04-08T10:56:34;15.88;;;9.55;;
4636;SDS011;2331;48.806;9.140;2023-04-08T10:59:01;12.95;;;8.93;;
4636;SDS011;2331;48.806;9.140;2023-04-08T11:01:36;12.27;;;8.05;;
4636;SDS011;2331;48.806;9.140;2023-04-08T11:04:06;14.73;;;9.63;;
4636;SDS011;2331;48.806;9.140;2023-04-08T11:06:37;14.43;;;9.30;;
4636;SDS011;2331;48.806;9.140;2023-04-08T11:09:05;13.27;;;9.25;;
4636;SDS011;2331;48.806;9.140;2023-04-08T11:11:32;13.48;;;8.45;;
4636;SDS011;2331;48.806;9.140;2023-04-08T11:14:00;14.13;;;8.40;;
4636;SDS011;2331;48.806;9.140;2023-04-08T11:16:27;13.82;;;9.18;;
4636;SDS011;2331;48.806;9.140;2023-04-08T11:18:54;14.82;;;9.55;;
4636;SDS011;2331;48.806;9.140;2023-04-08T11:21:22;13.40;;;9.20;;
4636;SDS011;2331;48.806;9.140;2023-04-08T11:23:49;12.45;;;9.00;;
4636;SDS011;2331;48.806;9.140;2023-04-08T11:26:18;13.88;;;8.82;;
4636;SDS011;2331;48.806;9.140;2023-04-08T11:28:45;12.70;;;9.35;;
4636;SDS011;2331;48.806;9.140;2023-04-08T11:31:14;14.07;;;9.65;;
4636;SDS011;2331;48.806;9.140;2023-04-08T11:33:45;13.45;;;8.82;;
4636;SDS011;2331;48.806;9.140;2023-04-08T11:36:13;15.77;;;9.52;;
4636;SDS011;2331;48.806;9.140;2023-04-08T11:38:43;14.95;;;9.70;;
4636;SDS011;2331;48.806;9.140;2023-04-08T11:41:11;15.35;;;8.77;;
4636;SDS011;2331;48.806;9.140;2023-04-08T11:43:50;13.75;;;9.25;;
4636;SDS011;2331;48.806;9.140;2023-04-08T11:46:18;13.50;;;8.93;;
4636;SDS011;2331;48.806;9.140;2023-04-08T11:49:01;15.20;;;9.98;;
4636;SDS011;2331;48.806;9.140;2023-04-08T11:51:29;13.60;;;9.73;;
4636;SDS011;2331;48.806;9.140;2023-04-08T11:53:58;16.42;;;9.63;;
4636;SDS011;2331;48.806;9.140;2023-04-08T11:56:25;14.13;;;9.68;;
4636;SDS011;2331;48.806;9.140;2023-04-08T11:58:56;14.25;;;10.15;;
4636;SDS011;2331;48.806;9.140;2023-04-08T12:01:22;15.95;;;9.95;;
4636;SDS011;2331;48.806;9.140;2023-04-08T12:03:57;12.20;;;8.98;;
4636;SDS011;2331;48.806;9.140;2023-04-08T12:06:25;15.18;;;9.70;;
4636;SDS011;2331;48.806;9.140;2023-04-08T12:08:53;15.65;;;9.18;;
4636;SDS011;2331;48.806;9.140;2023-04-08T12:11:21;13.88;;;9.55;;
4636;SDS011;2331;48.806;9.140;2023-04-08T12:13:48;14.40;;;9.25;;
4636;SDS011;2331;48.806;9.140;2023-04-08T12:16:17;12.63;;;9.30;;
4636;SDS011;2331;48.806;9.140;2023-04-08T12:18:45;11.68;;;8.20;;
4636;SDS011;2331;48.806;9.140;2023-04-08T12:21:12;13.77;;;9.80;;
4636;SDS011;2331;48.806;9.140;2023-04-08T12:23:39;11.90;;;8.80;;
4636;SDS011;2331;48.806;9.140;2023-04-08T12:26:06;12.90;;;9.27;;
4636;SDS011;2331;48.806;9.140;2023-04-08T12:28:33;15.02;;;9.02;;
4636;SDS011;2331;48.806;9.140;2023-04-08T12:31:00;16.08;;;9.68;;
4636;SDS011;2331;48.806;9.140;2023-04-08T12:33:28;14.60;;;9.05;;
4636;SDS011;2331;48.806;9.140;2023-04-08T12:35:55;14.60;;;9.77;;
4636;SDS011;2331;48.806;9.140;2023-04-08T12:38:23;13.07;;;8.98;;
4636;SDS011;2331;48.806;9.140;2023-04-08T12:40:50;21.42;;;9.77;;
4636;SDS011;2331;48.806;9.140;2023-04-08T12:43:17;13.48;;;9.88;;
4636;SDS011;2331;48.806;9.140;2023-04-08T12:45:43;13.95;;;9.32;;
4636;SDS011;2331;48.806;9.140;2023-04-08T12:48:10;13.75;;;9.52;;
4636;SDS011;2331;48.806;9.140;2023-04-08T12:50:39;15.77;;;9.60;;
4636;SDS011;2331;48.806;9.140;2023-04-08T12:53:05;15.32;;;9.77;;
4636;SDS011;2331;48.806;9.140;2023-04-08T12:55:33;14.35;;;9.60;;
4636;SDS011;2331;48.806;9.140;2023-04-08T12:57:59;16.27;;;9.70;;
4636;SDS011;2331;48.806;9.140;2023-04-08T13:00:26;11.45;;;8.93;;
4636;SDS011;2331;48.806;9.140;2023-04-08T13:02:53;12.20;;;8.73;;
4636;SDS011;2331;48.806;9.140;2023-04-08T13:05:20;13.80;;;8.85;;
4636;SDS011;2331;48.806;9.140;2023-04-08T13:07:49;13.57;;;8.65;;
4636;SDS011;2331;48.806;9.140;2023-04-08T13:10:15;16.52;;;9.90;;
4636;SDS011;2331;48.806;9.140;2023-04-08T13:12:42;12.20;;;8.68;;
4636;SDS011;2331;48.806;9.140;2023-04-08T13:15:09;14.30;;;8.68;;
4636;SDS011;2331;48.806;9.140;2023-04-08T13:17:37;15.38;;;9.05;;
4636;SDS011;2331;48.806;9.140;2023-04-08T13:20:04;12.85;;;8.80;;
4636;SDS011;2331;48.806;9.140;2023-04-08T13:22:33;13.07;;;8.98;;
4636;SDS011;2331;48.806;9.140;2023-04-08T13:25:01;11.95;;;8.48;;
4636;SDS011;2331;48.806;9.140;2023-04-08T13:27:30;10.57;;;8.45;;
4636;SDS011;2331;48.806;9.140;2023-04-08T13:29:57;12.60;;;8.38;;
4636;SDS011;2331;48.806;9.140;2023-04-08T13:32:25;17.85;;;9.35;;
4636;SDS011;2331;48.806;9.140;2023-04-08T13:34:52;15.77;;;9.82;;
4636;SDS011;2331;48.806;9.140;2023-04-08T13:37:19;15.00;;;8.77;;
4636;SDS011;2331;48.806;9.140;2023-04-08T13:39:46;12.02;;;8.45;;
4636;SDS011;2331;48.806;9.140;2023-04-08T13:42:14;13.02;;;8.93;;
4636;SDS011;2331;48.806;9.140;2023-04-08T13:44:41;14.30;;;9.05;;
4636;SDS011;2331;48.806;9.140;2023-04-08T13:47:08;11.63;;;8.70;;
4636;SDS011;2331;48.806;9.140;2023-04-08T13:49:35;15.60;;;9.50;;
4636;SDS011;2331;48.806;9.140;2023-04-08T13:52:02;15.60;;;8.98;;
4636;SDS011;2331;48.806;9.140;2023-04-08T13:54:29;14.73;;;9.25;;
4636;SDS011;2331;48.806;9.140;2023-04-08T13:56:57;14.95;;;9.23;;
4636;SDS011;2331;48.806;9.140;2023-04-08T13:59:26;14.50;;;8.65;;
4636;SDS011;2331;48.806;9.140;2023-04-08T14:01:53;15.45;;;9.45;;
4636;SDS011;2331;48.806;9.140;2023-04-08T14:04:20;13.38;;;8.65;;
4636;SDS011;2331;48.806;9.140;2023-04-08T14:06:47;11.52;;;8.52;;
4636;SDS011;2331;48.806;9.140;2023-04-08T14:09:15;10.93;;;7.70;;
4636;SDS011;2331;48.806;9.140;2023-04-08T14:11:42;14.20;;;9.40;;
4636;SDS011;2331;48.806;9.140;2023-04-08T14:14:09;12.35;;;9.10;;
4636;SDS011;2331;48.806;9.140;2023-04-08T14:16:37;10.98;;;8.38;;
4636;SDS011;2331;48.806;9.140;2023-04-08T14:19:05;13.63;;;8.88;;
4636;SDS011;2331;48.806;9.140;2023-04-08T14:21:32;13.75;;;9.40;;
4636;SDS011;2331;48.806;9.140;2023-04-08T14:23:59;12.63;;;8.73;;
4636;SDS011;2331;48.806;9.140;2023-04-08T14:26:26;15.35;;;9.70;;
4636;SDS011;2331;48.806;9.140;2023-04-08T14:28:53;16.92;;;9.75;;
4636;SDS011;2331;48.806;9.140;2023-04-08T14:31:20;15.82;;;9.70;;
4636;SDS011;2331;48.806;9.140;2023-04-08T14:33:48;16.45;;;8.95;;
4636;SDS011;2331;48.806;9.140;2023-04-08T14:36:15;12.95;;;8.77;;
4636;SDS011;2331;48.806;9.140;2023-04-08T14:38:42;13.10;;;8.52;;
4636;SDS011;2331;48.806;9.140;2023-04-08T14:41:09;10.55;;;8.32;;
4636;SDS011;2331;48.806;9.140;2023-04-08T14:43:36;12.68;;;8.65;;
4636;SDS011;2331;48.806;9.140;2023-04-08T14:46:03;14.35;;;8.93;;
4636;SDS011;2331;48.806;9.140;2023-04-08T14:48:30;11.85;;;8.32;;
4636;SDS011;2331;48.806;9.140;2023-04-08T14:50:59;14.20;;;8.77;;
4636;SDS011;2331;48.806;9.140;2023-04-08T14:53:25;10.63;;;7.82;;
4636;SDS011;2331;48.806;9.140;2023-04-08T14:55:52;11.38;;;7.85;;
4636;SDS011;2331;48.806;9.140;2023-04-08T14:58:19;10.88;;;8.15;;
4636;SDS011;2331;48.806;9.140;2023-04-08T15:00:45;13.50;;;8.30;;
4636;SDS011;2331;48.806;9.140;2023-04-08T15:03:12;11.13;;;8.52;;
4636;SDS011;2331;48.806;9.140;2023-04-08T15:05:40;14.07;;;8.00;;